SFR224K FACT-FAPE
Flight info
| Callsign | SFR224K |
|---|---|
| Flight time | 0h 56m |
| Altitude | 35000 |
| Route | OKTED1C OKTED UQ12 XUGOL UQ56 OKSET DCT PEV |
| Aircraft | B738/M-SDE2E3FGHIRWXY/LB1 |
Departure
| Time | 2026-04-26 18:00 |
|---|---|
| Airport | Cape Town International Airport (FACT) |
Arrival
| Time | 2026-04-26 18:56 |
|---|---|
| Airport | Chief Dawid Stuurman International Airport (FAPE) |
| Time | Latitude | Longitude | Altitude | Speed | Heading |
|---|---|---|---|---|---|
| 2026-04-26 17:27 | -33.96951 | 18.59819 | 156 ft | 0 kts | 255° |
| 2026-04-26 17:46 | -33.96950 | 18.59824 | 156 ft | 2 kts | 255° |
| 2026-04-26 17:46 | -33.96946 | 18.59840 | 156 ft | 2 kts | 255° |
| 2026-04-26 17:46 | -33.96943 | 18.59857 | 156 ft | 2 kts | 256° |
| 2026-04-26 17:47 | -33.96940 | 18.59872 | 156 ft | 2 kts | 259° |
| 2026-04-26 17:47 | -33.96939 | 18.59883 | 156 ft | 2 kts | 264° |
| 2026-04-26 17:47 | -33.96938 | 18.59900 | 156 ft | 1 kts | 289° |
| 2026-04-26 17:47 | -33.96941 | 18.59908 | 156 ft | 1 kts | 315° |
| 2026-04-26 17:48 | -33.96947 | 18.59913 | 156 ft | 1 kts | 332° |
| 2026-04-26 17:48 | -33.96952 | 18.59916 | 156 ft | 1 kts | 339° |
| 2026-04-26 17:48 | -33.96958 | 18.59919 | 156 ft | 1 kts | 341° |
| 2026-04-26 17:48 | -33.96963 | 18.59921 | 156 ft | 1 kts | 343° |
| 2026-04-26 17:49 | -33.96965 | 18.59922 | 156 ft | 0 kts | 343° |
| 2026-04-26 17:52 | -33.96943 | 18.59914 | 156 ft | 4 kts | 344° |
| 2026-04-26 17:52 | -33.96916 | 18.59904 | 156 ft | 4 kts | 344° |
| 2026-04-26 17:52 | -33.96889 | 18.59895 | 156 ft | 4 kts | 344° |
| 2026-04-26 17:52 | -33.96863 | 18.59887 | 156 ft | 4 kts | 344° |
| 2026-04-26 17:53 | -33.96837 | 18.59878 | 156 ft | 5 kts | 346° |
| 2026-04-26 17:53 | -33.96786 | 18.59863 | 156 ft | 8 kts | 346° |
| 2026-04-26 17:53 | -33.96732 | 18.59846 | 156 ft | 8 kts | 343° |
| 2026-04-26 17:54 | -33.96627 | 18.59812 | 156 ft | 8 kts | 347° |
| 2026-04-26 17:54 | -33.96577 | 18.59799 | 156 ft | 7 kts | 343° |
| 2026-04-26 17:54 | -33.96529 | 18.59783 | 156 ft | 7 kts | 347° |
| 2026-04-26 17:54 | -33.96481 | 18.59773 | 156 ft | 7 kts | 350° |
| 2026-04-26 17:55 | -33.96434 | 18.59763 | 156 ft | 7 kts | 350° |
| 2026-04-26 17:55 | -33.96389 | 18.59754 | 156 ft | 7 kts | 350° |
| 2026-04-26 17:55 | -33.96344 | 18.59745 | 156 ft | 6 kts | 350° |
| 2026-04-26 17:55 | -33.96300 | 18.59736 | 156 ft | 6 kts | 351° |
| 2026-04-26 17:56 | -33.96256 | 18.59728 | 156 ft | 6 kts | 355° |
| 2026-04-26 17:56 | -33.96186 | 18.59777 | 154 ft | 6 kts | 43° |
| 2026-04-26 17:57 | -33.96127 | 18.59847 | 154 ft | 6 kts | 45° |
| 2026-04-26 17:57 | -33.96099 | 18.59882 | 154 ft | 6 kts | 47° |
| 2026-04-26 17:57 | -33.96072 | 18.59916 | 153 ft | 6 kts | 46° |
| 2026-04-26 17:57 | -33.96046 | 18.59951 | 153 ft | 6 kts | 51° |
| 2026-04-26 17:58 | -33.96026 | 18.60020 | 152 ft | 1 kts | 121° |
| 2026-04-26 17:59 | -33.96032 | 18.60023 | 152 ft | 0 kts | 163° |
| 2026-04-26 17:59 | -33.96099 | 18.60046 | 153 ft | 37 kts | 165° |
| 2026-04-26 18:00 | -33.96596 | 18.60201 | 158 ft | 108 kts | 166° |
| 2026-04-26 18:00 | -33.97485 | 18.60486 | 158 ft | 163 kts | 166° |
| 2026-04-26 18:00 | -33.98657 | 18.60894 | 661 ft | 175 kts | 168° |
| 2026-04-26 18:00 | -33.99777 | 18.61309 | 1753 ft | 161 kts | 169° |
| 2026-04-26 18:01 | -34.00860 | 18.61741 | 2433 ft | 176 kts | 165° |
| 2026-04-26 18:01 | -34.02116 | 18.62299 | 2767 ft | 204 kts | 164° |
| 2026-04-26 18:01 | -34.03512 | 18.62917 | 3033 ft | 225 kts | 165° |
| 2026-04-26 18:01 | -34.05009 | 18.63595 | 3566 ft | 233 kts | 164° |
| 2026-04-26 18:02 | -34.06586 | 18.64300 | 3897 ft | 253 kts | 165° |
| 2026-04-26 18:02 | -34.07693 | 18.64796 | 4285 ft | 260 kts | 164° |
| 2026-04-26 18:02 | -34.09985 | 18.65822 | 5446 ft | 264 kts | 165° |
| 2026-04-26 18:02 | -34.11701 | 18.66610 | 6254 ft | 269 kts | 165° |
| 2026-04-26 18:03 | -34.13466 | 18.67427 | 7037 ft | 274 kts | 165° |
| 2026-04-26 18:03 | -34.15174 | 18.68570 | 7766 ft | 290 kts | 142° |
| 2026-04-26 18:03 | -34.16389 | 18.70574 | 8509 ft | 304 kts | 116° |
| 2026-04-26 18:03 | -34.16892 | 18.73097 | 9283 ft | 313 kts | 97° |
| 2026-04-26 18:04 | -34.17062 | 18.75736 | 10040 ft | 318 kts | 94° |
| 2026-04-26 18:04 | -34.17189 | 18.78413 | 10513 ft | 332 kts | 93° |
| 2026-04-26 18:04 | -34.17323 | 18.81307 | 10745 ft | 355 kts | 93° |
| 2026-04-26 18:05 | -34.17608 | 18.87393 | 12055 ft | 368 kts | 93° |
| 2026-04-26 18:05 | -34.17762 | 18.90486 | 12804 ft | 371 kts | 93° |
| 2026-04-26 18:05 | -34.17925 | 18.93617 | 13535 ft | 376 kts | 93° |
| 2026-04-26 18:05 | -34.18099 | 18.96784 | 14160 ft | 381 kts | 92° |
| 2026-04-26 18:06 | -34.18285 | 19.00016 | 14669 ft | 389 kts | 93° |
| 2026-04-26 18:06 | -34.18482 | 19.03320 | 15191 ft | 397 kts | 92° |
| 2026-04-26 18:06 | -34.18691 | 19.06631 | 15722 ft | 404 kts | 92° |
| 2026-04-26 18:06 | -34.18917 | 19.10050 | 16248 ft | 411 kts | 92° |
| 2026-04-26 18:07 | -34.19157 | 19.13527 | 16800 ft | 418 kts | 92° |
| 2026-04-26 18:07 | -34.19411 | 19.17061 | 17342 ft | 425 kts | 92° |
| 2026-04-26 18:07 | -34.19684 | 19.20643 | 17852 ft | 432 kts | 92° |
| 2026-04-26 18:07 | -34.19883 | 19.23052 | 18197 ft | 436 kts | 93° |
| 2026-04-26 18:08 | -34.20290 | 19.27987 | 18798 ft | 445 kts | 93° |
| 2026-04-26 18:08 | -34.20596 | 19.31682 | 19251 ft | 450 kts | 92° |
| 2026-04-26 18:08 | -34.20912 | 19.35479 | 19700 ft | 456 kts | 93° |
| 2026-04-26 18:08 | -34.21196 | 19.39332 | 20135 ft | 461 kts | 86° |
| 2026-04-26 18:09 | -34.20745 | 19.43115 | 20553 ft | 453 kts | 66° |
| 2026-04-26 18:09 | -34.20103 | 19.46884 | 21032 ft | 469 kts | 83° |
| 2026-04-26 18:09 | -34.20401 | 19.50748 | 21418 ft | 482 kts | 99° |
| 2026-04-26 18:09 | -34.21127 | 19.54722 | 21853 ft | 487 kts | 101° |
| 2026-04-26 18:10 | -34.21722 | 19.58773 | 22195 ft | 492 kts | 92° |
| 2026-04-26 18:10 | -34.21819 | 19.62781 | 22603 ft | 491 kts | 83° |
| 2026-04-26 18:10 | -34.21587 | 19.66902 | 23080 ft | 491 kts | 78° |
| 2026-04-26 18:10 | -34.21218 | 19.70980 | 23496 ft | 495 kts | 77° |
| 2026-04-26 18:11 | -34.20826 | 19.75019 | 23837 ft | 500 kts | 77° |
| 2026-04-26 18:11 | -34.20447 | 19.79210 | 24200 ft | 504 kts | 78° |
| 2026-04-26 18:11 | -34.20107 | 19.83442 | 24584 ft | 507 kts | 78° |
| 2026-04-26 18:11 | -34.19796 | 19.87703 | 24967 ft | 510 kts | 79° |
| 2026-04-26 18:12 | -34.19499 | 19.92000 | 25316 ft | 514 kts | 79° |
| 2026-04-26 18:12 | -34.19205 | 19.96322 | 25634 ft | 518 kts | 79° |
| 2026-04-26 18:12 | -34.18906 | 20.00682 | 25965 ft | 522 kts | 79° |
| 2026-04-26 18:12 | -34.18604 | 20.05007 | 26294 ft | 525 kts | 79° |
| 2026-04-26 18:13 | -34.18293 | 20.09414 | 26621 ft | 528 kts | 79° |
| 2026-04-26 18:13 | -34.17977 | 20.13840 | 26940 ft | 531 kts | 79° |
| 2026-04-26 18:13 | -34.17661 | 20.18304 | 27248 ft | 535 kts | 80° |
| 2026-04-26 18:13 | -34.17545 | 20.21287 | 27437 ft | 540 kts | 85° |
| 2026-04-26 18:14 | -34.17626 | 20.27401 | 27812 ft | 546 kts | 88° |
| 2026-04-26 18:14 | -34.17787 | 20.32000 | 28083 ft | 549 kts | 89° |
| 2026-04-26 18:14 | -34.17970 | 20.36625 | 28346 ft | 552 kts | 89° |
| 2026-04-26 18:14 | -34.18141 | 20.41207 | 28601 ft | 554 kts | 88° |
| 2026-04-26 18:15 | -34.18294 | 20.45878 | 28856 ft | 557 kts | 88° |
| 2026-04-26 18:15 | -34.18427 | 20.50571 | 29097 ft | 559 kts | 88° |
| 2026-04-26 18:15 | -34.18546 | 20.55291 | 29346 ft | 562 kts | 88° |
| 2026-04-26 18:15 | -34.18656 | 20.60017 | 29581 ft | 564 kts | 88° |
| 2026-04-26 18:16 | -34.18763 | 20.64763 | 29808 ft | 567 kts | 88° |
| 2026-04-26 18:16 | -34.18977 | 20.74328 | 30261 ft | 571 kts | 88° |
| 2026-04-26 18:16 | -34.19084 | 20.79072 | 30461 ft | 572 kts | 88° |
| 2026-04-26 18:17 | -34.19191 | 20.83899 | 30657 ft | 574 kts | 88° |
| 2026-04-26 18:17 | -34.19297 | 20.88731 | 30831 ft | 576 kts | 88° |
| 2026-04-26 18:17 | -34.19402 | 20.93580 | 31019 ft | 578 kts | 88° |
| 2026-04-26 18:17 | -34.19503 | 20.98372 | 31244 ft | 578 kts | 88° |
| 2026-04-26 18:18 | -34.19603 | 21.03215 | 31511 ft | 578 kts | 88° |
| 2026-04-26 18:18 | -34.19702 | 21.08079 | 31752 ft | 578 kts | 88° |
| 2026-04-26 18:18 | -34.19798 | 21.12933 | 31982 ft | 578 kts | 88° |
| 2026-04-26 18:18 | -34.19893 | 21.17795 | 32198 ft | 579 kts | 88° |
| 2026-04-26 18:19 | -34.19985 | 21.22657 | 32417 ft | 579 kts | 88° |
| 2026-04-26 18:19 | -34.20076 | 21.27542 | 32629 ft | 580 kts | 88° |
| 2026-04-26 18:19 | -34.20165 | 21.32409 | 32856 ft | 580 kts | 88° |
| 2026-04-26 18:19 | -34.20253 | 21.37286 | 33088 ft | 580 kts | 88° |
| 2026-04-26 18:20 | -34.20338 | 21.42110 | 33307 ft | 581 kts | 88° |
| 2026-04-26 18:20 | -34.20420 | 21.46988 | 33513 ft | 581 kts | 88° |
| 2026-04-26 18:20 | -34.20500 | 21.51879 | 33739 ft | 582 kts | 88° |
| 2026-04-26 18:20 | -34.20526 | 21.53531 | 33808 ft | 582 kts | 88° |
| 2026-04-26 18:21 | -34.20653 | 21.61596 | 34224 ft | 579 kts | 88° |
| 2026-04-26 18:21 | -34.20728 | 21.66455 | 34562 ft | 575 kts | 88° |
| 2026-04-26 18:21 | -34.20801 | 21.71278 | 34906 ft | 571 kts | 88° |
| 2026-04-26 18:21 | -34.20872 | 21.76072 | 34957 ft | 569 kts | 88° |
| 2026-04-26 18:22 | -34.21004 | 21.85634 | 34975 ft | 572 kts | 88° |
| 2026-04-26 18:22 | -34.21128 | 21.95270 | 34974 ft | 575 kts | 88° |
| 2026-04-26 18:23 | -34.21247 | 22.04962 | 34978 ft | 578 kts | 88° |
| 2026-04-26 18:23 | -34.21361 | 22.14698 | 34965 ft | 579 kts | 87° |
| 2026-04-26 18:24 | -34.21466 | 22.24427 | 34959 ft | 579 kts | 87° |
| 2026-04-26 18:24 | -34.21564 | 22.34103 | 34961 ft | 578 kts | 87° |
| 2026-04-26 18:25 | -34.21655 | 22.43814 | 34957 ft | 577 kts | 87° |
| 2026-04-26 18:25 | -34.21739 | 22.53516 | 34956 ft | 576 kts | 87° |
| 2026-04-26 18:26 | -34.21816 | 22.63130 | 34958 ft | 574 kts | 87° |
| 2026-04-26 18:26 | -34.21885 | 22.72767 | 34956 ft | 573 kts | 87° |
| 2026-04-26 18:27 | -34.21946 | 22.82346 | 34957 ft | 571 kts | 87° |
| 2026-04-26 18:27 | -34.22001 | 22.91902 | 34939 ft | 560 kts | 87° |
| 2026-04-26 18:28 | -34.22029 | 22.96560 | 34941 ft | 547 kts | 86° |
| 2026-04-26 18:28 | -34.22054 | 23.01114 | 34936 ft | 533 kts | 86° |
| 2026-04-26 18:28 | -34.22076 | 23.05543 | 34855 ft | 522 kts | 86° |
| 2026-04-26 18:28 | -34.22093 | 23.09922 | 34535 ft | 520 kts | 86° |
| 2026-04-26 18:29 | -34.22104 | 23.14262 | 33872 ft | 527 kts | 86° |
| 2026-04-26 18:29 | -34.22111 | 23.18748 | 32911 ft | 540 kts | 86° |
| 2026-04-26 18:29 | -34.22116 | 23.23339 | 31959 ft | 552 kts | 86° |
| 2026-04-26 18:29 | -34.22125 | 23.27998 | 31428 ft | 552 kts | 86° |
| 2026-04-26 18:30 | -34.22138 | 23.32606 | 31152 ft | 545 kts | 86° |
| 2026-04-26 18:30 | -34.22152 | 23.37148 | 30891 ft | 538 kts | 86° |
| 2026-04-26 18:30 | -34.22160 | 23.40137 | 30701 ft | 534 kts | 86° |
| 2026-04-26 18:30 | -34.22170 | 23.46120 | 30058 ft | 533 kts | 85° |
| 2026-04-26 18:31 | -34.22170 | 23.50565 | 29142 ft | 540 kts | 85° |
| 2026-04-26 18:31 | -34.22168 | 23.55113 | 28458 ft | 540 kts | 85° |
| 2026-04-26 18:31 | -34.22167 | 23.59636 | 28004 ft | 535 kts | 85° |
| 2026-04-26 18:31 | -34.22168 | 23.64099 | 27621 ft | 528 kts | 85° |
| 2026-04-26 18:32 | -34.22167 | 23.68520 | 27197 ft | 520 kts | 85° |
| 2026-04-26 18:32 | -34.22166 | 23.71397 | 26818 ft | 514 kts | 85° |
| 2026-04-26 18:32 | -34.22162 | 23.75707 | 26088 ft | 509 kts | 85° |
| 2026-04-26 18:32 | -34.22154 | 23.79984 | 25358 ft | 505 kts | 84° |
| 2026-04-26 18:33 | -34.21997 | 23.84202 | 24732 ft | 499 kts | 78° |
| 2026-04-26 18:33 | -34.21625 | 23.88283 | 24377 ft | 493 kts | 76° |
| 2026-04-26 18:33 | -34.21201 | 23.92385 | 23974 ft | 488 kts | 76° |
| 2026-04-26 18:33 | -34.20759 | 23.96432 | 23569 ft | 484 kts | 75° |
| 2026-04-26 18:34 | -34.20316 | 24.00457 | 23080 ft | 481 kts | 75° |
| 2026-04-26 18:34 | -34.19744 | 24.05727 | 22505 ft | 475 kts | 75° |
| 2026-04-26 18:34 | -34.19456 | 24.08393 | 22225 ft | 472 kts | 75° |
| 2026-04-26 18:34 | -34.19038 | 24.12310 | 21816 ft | 467 kts | 75° |
| 2026-04-26 18:35 | -34.18633 | 24.16135 | 21418 ft | 462 kts | 75° |
| 2026-04-26 18:35 | -34.18234 | 24.19962 | 21012 ft | 452 kts | 75° |
| 2026-04-26 18:35 | -34.17857 | 24.23677 | 20630 ft | 440 kts | 75° |
| 2026-04-26 18:35 | -34.17500 | 24.27305 | 20263 ft | 432 kts | 75° |
| 2026-04-26 18:36 | -34.17157 | 24.30876 | 19899 ft | 423 kts | 75° |
| 2026-04-26 18:36 | -34.16829 | 24.34376 | 19549 ft | 417 kts | 75° |
| 2026-04-26 18:36 | -34.16508 | 24.37853 | 19209 ft | 415 kts | 75° |
| 2026-04-26 18:36 | -34.16196 | 24.41270 | 18865 ft | 413 kts | 75° |
| 2026-04-26 18:37 | -34.15886 | 24.44709 | 18516 ft | 411 kts | 75° |
| 2026-04-26 18:37 | -34.15581 | 24.48127 | 18170 ft | 409 kts | 75° |
| 2026-04-26 18:37 | -34.15279 | 24.51535 | 17800 ft | 405 kts | 75° |
| 2026-04-26 18:37 | -34.14983 | 24.54899 | 17505 ft | 400 kts | 75° |
| 2026-04-26 18:38 | -34.14697 | 24.58194 | 17242 ft | 395 kts | 75° |
| 2026-04-26 18:38 | -34.14414 | 24.61467 | 17042 ft | 388 kts | 75° |
| 2026-04-26 18:38 | -34.14141 | 24.64679 | 16806 ft | 383 kts | 75° |
| 2026-04-26 18:38 | -34.13860 | 24.67902 | 16281 ft | 387 kts | 75° |
| 2026-04-26 18:39 | -34.13576 | 24.71111 | 15827 ft | 382 kts | 75° |
| 2026-04-26 18:39 | -34.13292 | 24.74292 | 15287 ft | 379 kts | 75° |
| 2026-04-26 18:39 | -34.13004 | 24.77444 | 14772 ft | 376 kts | 75° |
| 2026-04-26 18:39 | -34.12715 | 24.80563 | 14297 ft | 372 kts | 75° |
| 2026-04-26 18:40 | -34.12428 | 24.83615 | 13827 ft | 368 kts | 75° |
| 2026-04-26 18:40 | -34.12135 | 24.86672 | 13308 ft | 364 kts | 75° |
| 2026-04-26 18:40 | -34.11838 | 24.89699 | 12792 ft | 360 kts | 75° |
| 2026-04-26 18:40 | -34.11535 | 24.92682 | 12301 ft | 355 kts | 75° |
| 2026-04-26 18:41 | -34.11231 | 24.95595 | 11843 ft | 351 kts | 75° |
| 2026-04-26 18:41 | -34.10939 | 24.98379 | 11676 ft | 337 kts | 75° |
| 2026-04-26 18:41 | -34.10638 | 25.01231 | 11277 ft | 331 kts | 75° |
| 2026-04-26 18:41 | -34.10345 | 25.03938 | 10829 ft | 329 kts | 75° |
| 2026-04-26 18:42 | -34.10037 | 25.06703 | 10413 ft | 326 kts | 75° |
| 2026-04-26 18:42 | -34.09732 | 25.09356 | 10145 ft | 320 kts | 75° |
| 2026-04-26 18:42 | -34.09426 | 25.11995 | 9901 ft | 315 kts | 75° |
| 2026-04-26 18:42 | -34.09117 | 25.14615 | 9649 ft | 315 kts | 75° |
| 2026-04-26 18:43 | -34.08798 | 25.17238 | 9394 ft | 317 kts | 75° |
| 2026-04-26 18:43 | -34.08465 | 25.19863 | 9137 ft | 316 kts | 75° |
| 2026-04-26 18:43 | -34.08131 | 25.22463 | 8877 ft | 310 kts | 75° |
| 2026-04-26 18:43 | -34.07800 | 25.25004 | 8618 ft | 305 kts | 75° |
| 2026-04-26 18:44 | -34.07467 | 25.27510 | 8366 ft | 301 kts | 75° |
| 2026-04-26 18:44 | -34.07133 | 25.29991 | 8115 ft | 298 kts | 75° |
| 2026-04-26 18:44 | -34.06794 | 25.32448 | 7867 ft | 295 kts | 75° |
| 2026-04-26 18:44 | -34.06452 | 25.34879 | 7615 ft | 292 kts | 75° |
| 2026-04-26 18:45 | -34.06105 | 25.37288 | 7362 ft | 290 kts | 75° |
| 2026-04-26 18:45 | -34.05753 | 25.39644 | 7126 ft | 287 kts | 75° |
| 2026-04-26 18:45 | -34.05387 | 25.41997 | 6889 ft | 284 kts | 75° |
| 2026-04-26 18:45 | -34.05018 | 25.44324 | 6665 ft | 281 kts | 75° |
| 2026-04-26 18:46 | -34.04641 | 25.46635 | 6436 ft | 279 kts | 75° |
| 2026-04-26 18:46 | -34.04257 | 25.48925 | 6182 ft | 278 kts | 75° |
| 2026-04-26 18:46 | -34.03862 | 25.51204 | 5926 ft | 277 kts | 75° |
| 2026-04-26 18:46 | -34.03452 | 25.53466 | 5657 ft | 275 kts | 74° |
| 2026-04-26 18:47 | -34.03033 | 25.55711 | 5405 ft | 273 kts | 75° |
| 2026-04-26 18:47 | -34.02605 | 25.57942 | 5161 ft | 273 kts | 75° |
| 2026-04-26 18:47 | -34.02157 | 25.60160 | 4905 ft | 272 kts | 75° |
| 2026-04-26 18:47 | -34.01697 | 25.62334 | 4664 ft | 271 kts | 76° |
| 2026-04-26 18:48 | -34.01211 | 25.64530 | 4428 ft | 270 kts | 75° |
| 2026-04-26 18:48 | -34.00711 | 25.66716 | 4164 ft | 270 kts | 75° |
| 2026-04-26 18:48 | -34.00203 | 25.68892 | 3913 ft | 270 kts | 75° |
| 2026-04-26 18:48 | -33.99685 | 25.71069 | 3660 ft | 270 kts | 75° |
| 2026-04-26 18:49 | -33.99154 | 25.73238 | 3415 ft | 269 kts | 75° |
| 2026-04-26 18:49 | -33.98625 | 25.75401 | 3167 ft | 268 kts | 75° |
| 2026-04-26 18:49 | -33.98097 | 25.77549 | 2922 ft | 266 kts | 75° |
| 2026-04-26 18:49 | -33.97581 | 25.79667 | 2676 ft | 266 kts | 75° |
| 2026-04-26 18:50 | -33.97065 | 25.81786 | 2533 ft | 260 kts | 75° |
| 2026-04-26 18:50 | -33.96526 | 25.83838 | 2493 ft | 255 kts | 65° |
| 2026-04-26 18:50 | -33.95422 | 25.85469 | 2491 ft | 252 kts | 33° |
| 2026-04-26 18:50 | -33.93812 | 25.86210 | 2508 ft | 248 kts | 1° |
| 2026-04-26 18:51 | -33.92154 | 25.85886 | 2504 ft | 239 kts | 329° |
| 2026-04-26 18:51 | -33.90969 | 25.84669 | 2504 ft | 212 kts | 296° |
| 2026-04-26 18:51 | -33.90615 | 25.83099 | 2497 ft | 190 kts | 264° |
| 2026-04-26 18:51 | -33.90731 | 25.81529 | 2505 ft | 186 kts | 261° |
| 2026-04-26 18:52 | -33.90891 | 25.80029 | 2499 ft | 173 kts | 259° |
| 2026-04-26 18:52 | -33.90988 | 25.79099 | 2493 ft | 165 kts | 260° |
| 2026-04-26 18:52 | -33.91176 | 25.77285 | 2485 ft | 163 kts | 260° |
| 2026-04-26 18:52 | -33.91395 | 25.75938 | 2489 ft | 164 kts | 245° |
| 2026-04-26 18:53 | -33.91908 | 25.74716 | 2499 ft | 164 kts | 244° |
| 2026-04-26 18:53 | -33.92442 | 25.73505 | 2397 ft | 168 kts | 240° |
| 2026-04-26 18:53 | -33.93048 | 25.72300 | 2185 ft | 167 kts | 238° |
| 2026-04-26 18:53 | -33.93642 | 25.71144 | 1968 ft | 158 kts | 238° |
| 2026-04-26 18:54 | -33.94203 | 25.70055 | 1762 ft | 147 kts | 239° |
| 2026-04-26 18:54 | -33.94728 | 25.69036 | 1614 ft | 137 kts | 238° |
| 2026-04-26 18:54 | -33.95216 | 25.68086 | 1394 ft | 132 kts | 238° |
| 2026-04-26 18:54 | -33.95682 | 25.67180 | 1239 ft | 132 kts | 239° |
| 2026-04-26 18:55 | -33.96178 | 25.66217 | 1047 ft | 133 kts | 239° |
| 2026-04-26 18:55 | -33.96662 | 25.65278 | 872 ft | 131 kts | 238° |
| 2026-04-26 18:55 | -33.97144 | 25.64342 | 707 ft | 130 kts | 238° |
| 2026-04-26 18:55 | -33.97615 | 25.63423 | 519 ft | 129 kts | 238° |
| 2026-04-26 18:56 | -33.98097 | 25.62497 | 327 ft | 130 kts | 238° |
| 2026-04-26 18:56 | -33.98562 | 25.61583 | 227 ft | 130 kts | 237° |
| 2026-04-26 18:56 | -33.98942 | 25.60859 | 213 ft | 54 kts | 238° |
| 2026-04-26 18:56 | -33.99063 | 25.60625 | 209 ft | 29 kts | 238° |
| 2026-04-26 18:57 | -33.99162 | 25.60434 | 209 ft | 23 kts | 238° |
| 2026-04-26 18:57 | -33.99217 | 25.60328 | 216 ft | 19 kts | 238° |
| 2026-04-26 18:57 | -33.99271 | 25.60220 | 215 ft | 9 kts | 249° |
| 2026-04-26 18:57 | -33.99257 | 25.60151 | 217 ft | 9 kts | 316° |
| 2026-04-26 18:58 | -33.99206 | 25.60112 | 219 ft | 9 kts | 328° |
| 2026-04-26 18:58 | -33.99154 | 25.60089 | 220 ft | 8 kts | 2° |
| 2026-04-26 18:58 | -33.99109 | 25.60120 | 216 ft | 8 kts | 54° |
| 2026-04-26 18:58 | -33.99083 | 25.60173 | 213 ft | 7 kts | 58° |
| 2026-04-26 18:59 | -33.99056 | 25.60225 | 215 ft | 7 kts | 56° |
| 2026-04-26 18:59 | -33.99028 | 25.60274 | 216 ft | 7 kts | 56° |
| 2026-04-26 18:59 | -33.99002 | 25.60323 | 214 ft | 7 kts | 57° |
| 2026-04-26 18:59 | -33.98976 | 25.60371 | 214 ft | 7 kts | 57° |
| 2026-04-26 19:00 | -33.98950 | 25.60418 | 211 ft | 7 kts | 57° |
| 2026-04-26 19:00 | -33.98925 | 25.60464 | 212 ft | 6 kts | 57° |
| 2026-04-26 19:00 | -33.98900 | 25.60509 | 211 ft | 6 kts | 57° |
| 2026-04-26 19:00 | -33.98876 | 25.60553 | 211 ft | 6 kts | 57° |
| 2026-04-26 19:01 | -33.98853 | 25.60597 | 213 ft | 6 kts | 57° |
| 2026-04-26 19:01 | -33.98830 | 25.60639 | 214 ft | 6 kts | 56° |
| 2026-04-26 19:01 | -33.98807 | 25.60681 | 214 ft | 6 kts | 56° |
| 2026-04-26 19:01 | -33.98785 | 25.60722 | 215 ft | 6 kts | 57° |
| 2026-04-26 19:02 | -33.98763 | 25.60762 | 216 ft | 6 kts | 57° |
| 2026-04-26 19:02 | -33.98742 | 25.60802 | 214 ft | 6 kts | 57° |
| 2026-04-26 19:02 | -33.98721 | 25.60842 | 211 ft | 6 kts | 57° |
| 2026-04-26 19:02 | -33.98707 | 25.60868 | 212 ft | 5 kts | 57° |
| 2026-04-26 19:03 | -33.98679 | 25.60919 | 213 ft | 5 kts | 57° |
| 2026-04-26 19:03 | -33.98660 | 25.60956 | 216 ft | 5 kts | 58° |
| 2026-04-26 19:03 | -33.98640 | 25.60994 | 211 ft | 5 kts | 58° |
| 2026-04-26 19:03 | -33.98622 | 25.61031 | 220 ft | 5 kts | 58° |
| 2026-04-26 19:04 | -33.98603 | 25.61067 | 211 ft | 5 kts | 58° |
| 2026-04-26 19:04 | -33.98585 | 25.61103 | 215 ft | 5 kts | 58° |
| 2026-04-26 19:04 | -33.98567 | 25.61138 | 212 ft | 5 kts | 58° |
| 2026-04-26 19:04 | -33.98549 | 25.61172 | 213 ft | 5 kts | 58° |
| 2026-04-26 19:05 | -33.98516 | 25.61236 | 211 ft | 4 kts | 58° |
| 2026-04-26 19:05 | -33.98496 | 25.61248 | 211 ft | 3 kts | 3° |
| 2026-04-26 19:05 | -33.98476 | 25.61235 | 219 ft | 3 kts | 321° |
| 2026-04-26 19:06 | -33.98460 | 25.61222 | 215 ft | 2 kts | 328° |
| 2026-04-26 19:06 | -33.98455 | 25.61218 | 214 ft | 0 kts | 328° |